createdAt,value
2019-06-11T00:00:25.365Z,9.55
2019-06-11T00:02:55.765Z,9.90
2019-06-11T00:05:23.630Z,15.10
2019-06-11T00:07:53.282Z,15.95
2019-06-11T00:10:23.195Z,12.30
2019-06-11T00:12:53.549Z,13.23
2019-06-11T00:15:22.569Z,14.87
2019-06-11T00:17:52.572Z,12.30
2019-06-11T00:20:22.779Z,13.50
2019-06-11T00:22:52.738Z,13.47
2019-06-11T00:25:20.329Z,13.13
2019-06-11T00:27:48.717Z,11.75
2019-06-11T00:30:19.613Z,14.03
2019-06-11T00:32:46.512Z,10.45
2019-06-11T00:35:15.301Z,14.53
2019-06-11T00:37:44.169Z,11.25
2019-06-11T00:40:12.521Z,13.57
2019-06-11T00:42:42.113Z,12.60
2019-06-11T00:45:13.178Z,13.48
2019-06-11T00:47:40.224Z,14.65
2019-06-11T00:50:09.482Z,12.82
2019-06-11T00:52:37.536Z,14.78
2019-06-11T00:55:07.335Z,12.23
2019-06-11T00:57:35.334Z,10.13
2019-06-11T01:00:14.623Z,13.48
2019-06-11T01:02:42.697Z,12.50
2019-06-11T01:05:07.231Z,13.73
2019-06-11T01:07:34.093Z,13.13
2019-06-11T01:10:05.211Z,11.43
2019-06-11T01:12:32.474Z,12.13
2019-06-11T01:15:04.460Z,11.70
2019-06-11T01:17:32.954Z,13.85
2019-06-11T01:20:04.883Z,12.83
2019-06-11T01:22:32.837Z,14.38
2019-06-11T01:25:04.730Z,13.28
2019-06-11T01:27:32.796Z,9.98
2019-06-11T01:30:03.247Z,11.03
2019-06-11T01:32:32.610Z,12.95
2019-06-11T01:35:03.358Z,10.00
2019-06-11T01:37:32.455Z,13.83
2019-06-11T01:40:03.202Z,12.23
2019-06-11T01:42:32.717Z,11.70
2019-06-11T01:45:02.730Z,13.55
2019-06-11T01:47:32.599Z,12.60
2019-06-11T01:50:04.405Z,13.10
2019-06-11T01:52:32.537Z,12.65
2019-06-11T01:55:00.114Z,10.75
2019-06-11T01:57:28.485Z,14.05
2019-06-11T01:59:56.532Z,11.88
2019-06-11T02:02:24.929Z,17.35
2019-06-11T02:04:53.089Z,11.38
2019-06-11T02:07:22.536Z,13.30
2019-06-11T02:09:50.737Z,10.68
2019-06-11T02:12:18.792Z,15.28
2019-06-11T02:14:46.833Z,13.72
2019-06-11T02:17:17.140Z,13.43
2019-06-11T02:19:45.837Z,12.35
2019-06-11T02:22:16.519Z,12.85
2019-06-11T02:24:43.616Z,13.30
2019-06-11T02:27:14.060Z,14.20
2019-06-11T02:29:42.898Z,13.88
2019-06-11T02:32:17.923Z,14.83
2019-06-11T02:35:00.691Z,12.03
2019-06-11T02:37:16.083Z,14.65
2019-06-11T02:39:41.896Z,14.00
2019-06-11T02:42:13.295Z,20.55
2019-06-11T02:44:41.793Z,13.65
2019-06-11T02:47:16.246Z,12.60
2019-06-11T02:49:41.648Z,16.07
2019-06-11T02:52:14.537Z,13.43
2019-06-11T02:54:41.055Z,16.82
2019-06-11T02:57:15.571Z,17.07
2019-06-11T02:59:41.853Z,12.33
2019-06-11T03:02:14.007Z,16.15
2019-06-11T03:04:57.029Z,15.15
2019-06-11T03:07:13.148Z,12.88
2019-06-11T03:09:41.667Z,12.03
2019-06-11T03:12:12.177Z,14.87
2019-06-11T03:14:42.188Z,12.63
2019-06-11T03:17:15.226Z,16.05
2019-06-11T03:19:43.122Z,13.35
2019-06-11T03:22:14.104Z,13.85
2019-06-11T03:24:41.966Z,12.93
2019-06-11T03:27:13.359Z,13.68
2019-06-11T03:29:41.793Z,17.35
2019-06-11T03:37:36.787Z,11.83
2019-06-11T03:39:54.867Z,11.53
2019-06-11T03:42:11.862Z,9.78
2019-06-11T03:44:41.775Z,12.60
2019-06-11T03:47:12.682Z,13.48
2019-06-11T03:49:42.409Z,12.47
2019-06-11T03:52:11.759Z,12.90
2019-06-11T03:54:41.309Z,11.88
2019-06-11T03:57:11.950Z,12.07
2019-06-11T03:59:41.778Z,14.33
2019-06-11T04:02:12.330Z,17.02
2019-06-11T04:04:41.607Z,13.18
2019-06-11T04:07:20.970Z,23.62
2019-06-11T04:09:41.347Z,16.23
2019-06-11T04:12:11.512Z,17.65
2019-06-11T04:14:41.190Z,15.90
2019-06-11T04:17:18.790Z,16.97
2019-06-11T04:19:41.391Z,13.08
2019-06-11T04:22:11.418Z,15.88
2019-06-11T04:24:41.957Z,13.48
2019-06-11T04:27:12.450Z,16.70
2019-06-11T04:29:41.262Z,16.15
2019-06-11T04:32:12.047Z,13.63
2019-06-11T04:34:41.860Z,14.28
2019-06-11T04:37:25.454Z,13.22
2019-06-11T04:39:41.955Z,13.27
2019-06-11T04:42:11.432Z,15.35
2019-06-11T04:44:41.670Z,13.20
2019-06-11T04:47:11.394Z,14.73
2019-06-11T04:49:42.892Z,14.23
2019-06-11T04:52:08.598Z,14.47
2019-06-11T04:54:41.759Z,16.55
2019-06-11T04:57:07.643Z,13.45
2019-06-11T04:59:37.496Z,13.57
2019-06-11T05:05:03.008Z,16.12
2019-06-11T05:07:25.680Z,18.37
2019-06-11T05:09:38.629Z,16.50
2019-06-11T05:12:06.169Z,14.30
2019-06-11T05:14:46.394Z,17.87
2019-06-11T05:17:04.353Z,19.75
2019-06-11T05:19:38.934Z,15.85
2019-06-11T05:22:02.494Z,15.72
2019-06-11T05:24:36.695Z,15.20
2019-06-11T05:27:01.609Z,17.32
2019-06-11T05:29:35.440Z,15.05
2019-06-11T05:32:02.329Z,14.38
2019-06-11T05:34:34.361Z,16.20
2019-06-11T05:37:00.996Z,13.05
2019-06-11T05:39:32.186Z,14.55
2019-06-11T05:42:01.536Z,15.05
2019-06-11T05:44:34.017Z,16.73
2019-06-11T05:47:00.872Z,13.58
2019-06-11T05:49:32.814Z,15.40
2019-06-11T05:52:00.535Z,13.85
2019-06-11T05:54:29.309Z,19.15
2019-06-11T05:57:00.779Z,13.27
2019-06-11T05:59:29.787Z,13.65
2019-06-11T06:02:04.765Z,15.90
2019-06-11T06:04:31.033Z,15.75
2019-06-11T06:06:59.933Z,16.40
2019-06-11T06:09:30.380Z,13.08
2019-06-11T06:12:00.095Z,14.60
2019-06-11T06:14:30.998Z,15.23
2019-06-11T06:17:00.430Z,11.60
2019-06-11T06:19:31.203Z,14.63
2019-06-11T06:22:00.170Z,14.87
2019-06-11T06:24:35.747Z,14.07
2019-06-11T06:27:00.974Z,13.70
2019-06-11T06:29:31.704Z,13.43
2019-06-11T06:31:58.385Z,10.75
2019-06-11T06:34:27.403Z,12.37
2019-06-11T06:36:55.626Z,15.23
2019-06-11T06:39:27.753Z,14.10
2019-06-11T06:41:53.862Z,12.70
2019-06-11T06:44:23.269Z,11.70
2019-06-11T06:46:51.636Z,12.88
2019-06-11T06:49:20.676Z,13.55
2019-06-11T06:51:50.770Z,10.20
2019-06-11T06:54:20.371Z,11.10
2019-06-11T06:56:50.720Z,13.38
2019-06-11T06:59:20.762Z,12.65
2019-06-11T07:01:50.934Z,13.95
2019-06-11T07:04:20.967Z,12.82
2019-06-11T07:06:50.421Z,14.53
2019-06-11T07:09:21.214Z,11.93
2019-06-11T07:11:51.228Z,13.98
2019-06-11T07:14:21.510Z,11.45
2019-06-11T07:17:03.065Z,15.68
2019-06-11T07:19:22.178Z,14.60
2019-06-11T07:21:51.736Z,13.53
2019-06-11T07:24:20.965Z,15.93
2019-06-11T07:26:51.197Z,13.60
2019-06-11T07:29:21.120Z,17.53
2019-06-11T07:31:51.177Z,15.30
2019-06-11T07:34:21.681Z,17.20
2019-06-11T07:36:51.128Z,16.07
2019-06-11T07:39:27.296Z,17.42
2019-06-11T07:41:51.530Z,14.68
2019-06-11T07:44:21.001Z,19.65
2019-06-11T07:49:20.800Z,17.40
2019-06-11T07:51:52.099Z,28.43
2019-06-11T07:54:20.999Z,22.17
2019-06-11T07:56:48.122Z,24.00
2019-06-11T07:59:16.252Z,27.10
2019-06-11T08:01:50.660Z,26.20
2019-06-11T08:04:14.178Z,27.75
2019-06-11T08:06:50.219Z,28.20
2019-06-11T08:09:12.948Z,32.50
2019-06-11T08:11:49.834Z,27.87
2019-06-11T08:14:16.028Z,28.15
2019-06-11T08:16:51.368Z,29.67
2019-06-11T08:19:16.518Z,26.93
2019-06-11T08:22:05.751Z,29.72
2019-06-11T08:24:21.361Z,29.27
2019-06-11T08:27:07.954Z,19.80
2019-06-11T08:29:14.188Z,33.92
2019-06-11T08:31:44.132Z,33.30
2019-06-11T08:34:12.197Z,39.85
2019-06-11T08:36:43.131Z,31.35
2019-06-11T08:39:10.946Z,30.93
2019-06-11T08:41:42.631Z,33.75
2019-06-11T08:44:10.246Z,28.42
2019-06-11T08:46:41.943Z,30.43
2019-06-11T08:49:10.980Z,34.78
2019-06-11T08:51:42.198Z,28.55
2019-06-11T08:54:10.713Z,30.43
2019-06-11T08:56:41.169Z,30.90
2019-06-11T08:59:10.356Z,26.93
2019-06-11T09:01:41.687Z,27.13
2019-06-11T09:04:11.087Z,27.07
2019-06-11T09:06:39.924Z,29.42
2019-06-11T09:09:11.014Z,23.65
2019-06-11T09:11:43.821Z,24.32
2019-06-11T09:14:10.347Z,25.35
2019-06-11T09:16:42.651Z,30.85
2019-06-11T09:21:21.171Z,22.27
2019-06-11T09:23:49.696Z,22.80
2019-06-11T09:26:18.354Z,22.70
2019-06-11T09:28:48.229Z,22.55
2019-06-11T09:31:16.169Z,20.57
2019-06-11T09:33:46.040Z,19.15
2019-06-11T09:36:15.442Z,21.50
2019-06-11T09:38:45.758Z,21.42
2019-06-11T09:41:14.861Z,19.12
2019-06-11T09:43:45.166Z,20.30
2019-06-11T09:46:13.624Z,17.60
2019-06-11T09:48:44.124Z,21.57
2019-06-11T09:51:11.840Z,23.65
2019-06-11T09:53:40.288Z,26.62
2019-06-11T09:56:11.031Z,42.78
2019-06-11T09:58:40.885Z,25.23
2019-06-11T10:01:10.911Z,30.25
2019-06-11T10:03:40.638Z,24.00
2019-06-11T10:06:08.937Z,23.77
2019-06-11T10:08:39.970Z,29.05
2019-06-11T10:11:38.829Z,34.48
2019-06-11T10:13:40.316Z,38.53
2019-06-11T10:16:11.313Z,29.63
2019-06-11T10:18:40.294Z,34.65
2019-06-11T10:21:07.877Z,32.25
2019-06-11T10:23:36.479Z,29.42
2019-06-11T10:26:05.679Z,39.20
2019-06-11T10:28:34.381Z,39.55
2019-06-11T10:31:02.836Z,40.15
2019-06-11T10:33:34.847Z,35.43
2019-06-11T10:36:11.022Z,34.10
2019-06-11T10:38:46.004Z,30.12
2019-06-11T10:41:22.373Z,28.83
2019-06-11T10:44:06.970Z,26.85
2019-06-11T10:49:24.159Z,28.67
2019-06-11T10:51:59.072Z,26.10
2019-06-11T10:57:07.590Z,27.82
2019-06-11T10:59:47.144Z,26.55
2019-06-11T11:02:22.450Z,22.90
2019-06-11T11:05:04.874Z,22.07
2019-06-11T11:10:20.838Z,25.10
2019-06-11T11:13:01.308Z,27.90
2019-06-11T11:15:40.636Z,25.88
2019-06-11T11:18:23.586Z,21.95
2019-06-11T11:21:01.163Z,27.02
2019-06-11T11:23:41.491Z,27.77
2019-06-11T11:26:17.360Z,24.70
2019-06-11T11:29:00.646Z,24.60
2019-06-11T11:31:40.786Z,22.50
2019-06-11T11:34:20.894Z,25.17
2019-06-11T11:36:59.634Z,24.80
2019-06-11T11:39:41.042Z,24.25
2019-06-11T11:42:30.498Z,22.00
2019-06-11T11:44:49.311Z,25.73
2019-06-11T11:49:49.027Z,23.20
2019-06-11T11:52:20.072Z,21.17
2019-06-11T11:54:49.268Z,21.77
2019-06-11T11:57:21.099Z,24.92
2019-06-11T11:59:53.982Z,21.95
2019-06-11T12:02:21.561Z,25.82
2019-06-11T12:04:56.006Z,20.68
2019-06-11T12:07:20.426Z,21.60
2019-06-11T12:09:51.585Z,21.30
2019-06-11T12:12:19.904Z,20.08
2019-06-11T12:14:52.135Z,18.80
2019-06-11T12:17:20.111Z,20.52
2019-06-11T12:19:50.750Z,23.00
2019-06-11T12:22:20.476Z,20.27
2019-06-11T12:24:53.307Z,19.70
2019-06-11T12:27:20.509Z,19.32
2019-06-11T12:29:51.747Z,17.55
2019-06-11T12:32:21.213Z,16.82
2019-06-11T12:34:53.149Z,19.23
2019-06-11T12:37:20.752Z,15.50
2019-06-11T12:47:15.009Z,17.50
2019-06-11T12:49:43.195Z,12.58
2019-06-11T12:52:11.466Z,16.60
2019-06-11T12:57:08.016Z,15.30
2019-06-11T12:59:36.447Z,13.80
2019-06-11T13:02:04.937Z,13.80
2019-06-11T13:07:01.891Z,15.78
2019-06-11T13:09:31.050Z,19.10
2019-06-11T13:12:04.379Z,13.78
2019-06-11T13:14:31.069Z,17.85
2019-06-11T13:17:06.768Z,14.45
2019-06-11T13:19:30.592Z,15.55
2019-06-11T13:22:04.409Z,11.40
2019-06-11T13:24:30.578Z,15.03
2019-06-11T13:27:05.083Z,11.97
2019-06-11T13:29:32.532Z,13.80
2019-06-11T13:32:06.964Z,11.48
2019-06-11T13:34:31.544Z,11.30
2019-06-11T13:37:02.482Z,12.28
2019-06-11T13:39:30.973Z,10.82
2019-06-11T13:42:04.121Z,11.35
2019-06-11T13:44:35.969Z,10.72
2019-06-11T13:47:02.215Z,12.45
2019-06-11T13:49:30.886Z,10.23
2019-06-11T13:52:04.071Z,12.78
2019-06-11T13:54:31.540Z,10.60
2019-06-11T13:57:05.829Z,8.90
2019-06-11T13:59:31.166Z,10.15
2019-06-11T14:02:03.731Z,8.53
2019-06-11T14:04:33.870Z,10.10
2019-06-11T14:07:05.645Z,8.90
2019-06-11T14:09:34.388Z,10.35
2019-06-11T14:12:05.968Z,12.47
2019-06-11T14:14:36.013Z,12.05
2019-06-11T14:17:07.585Z,7.85
2019-06-11T14:19:40.169Z,7.28
2019-06-11T14:22:10.875Z,9.00
2019-06-11T14:24:40.881Z,8.40
2019-06-11T14:27:10.649Z,15.90
2019-06-11T14:29:40.475Z,8.20
2019-06-11T14:32:10.739Z,7.28
2019-06-11T14:34:45.454Z,7.62
2019-06-11T14:37:13.736Z,5.12
2019-06-11T14:39:43.850Z,15.05
2019-06-11T14:42:12.001Z,11.83
2019-06-11T14:44:46.090Z,5.80
2019-06-11T14:47:12.872Z,6.67
2019-06-11T14:49:42.058Z,5.15
2019-06-11T14:52:11.425Z,5.35
2019-06-11T14:57:09.518Z,6.40
2019-06-11T14:59:40.177Z,5.60
2019-06-11T15:02:09.726Z,7.03
2019-06-11T15:04:40.799Z,7.33
2019-06-11T15:07:14.377Z,8.83
2019-06-11T15:12:12.867Z,6.60
2019-06-11T15:14:51.663Z,8.58
2019-06-11T15:17:09.237Z,13.20
2019-06-11T15:19:57.660Z,8.95
2019-06-11T15:22:09.601Z,9.13
2019-06-11T15:24:38.212Z,11.75
2019-06-11T15:27:07.482Z,12.47
2019-06-11T15:29:36.941Z,10.40
2019-06-11T15:32:07.114Z,10.05
2019-06-11T15:34:34.937Z,8.43
2019-06-11T15:37:04.900Z,7.35
2019-06-11T15:42:04.757Z,9.40
2019-06-11T15:44:32.296Z,7.62
2019-06-11T15:47:03.329Z,8.25
2019-06-11T15:49:31.386Z,7.10
2019-06-11T15:52:00.753Z,7.78
2019-06-11T15:54:30.817Z,17.50
2019-06-11T15:57:02.124Z,6.20
2019-06-11T15:59:29.875Z,6.22
2019-06-11T16:01:58.478Z,12.15
2019-06-11T16:06:55.665Z,6.10
2019-06-11T16:09:27.842Z,7.70
2019-06-11T16:11:55.273Z,8.60
2019-06-11T16:14:31.338Z,6.97
2019-06-11T16:19:30.743Z,6.90
2019-06-11T16:21:58.808Z,6.60
2019-06-11T16:24:30.088Z,7.58
2019-06-11T16:27:01.043Z,6.60
2019-06-11T16:29:29.274Z,5.97
2019-06-11T16:32:00.145Z,6.50
2019-06-11T16:36:57.700Z,7.33
2019-06-11T16:39:26.941Z,6.53
2019-06-11T16:44:26.764Z,9.95
2019-06-11T16:46:54.206Z,7.95
2019-06-11T16:49:23.309Z,6.30
2019-06-11T16:54:22.858Z,6.50
2019-06-11T16:56:51.045Z,7.15
2019-06-11T16:59:20.680Z,23.47
2019-06-11T17:01:50.503Z,22.65
2019-06-11T17:04:21.192Z,8.70
2019-06-11T17:06:50.610Z,6.17
2019-06-11T17:09:19.022Z,7.47
2019-06-11T17:11:47.309Z,6.80
2019-06-11T17:14:17.855Z,7.45
2019-06-11T17:16:45.207Z,7.50
2019-06-11T17:19:15.240Z,7.90
2019-06-11T17:21:43.585Z,7.80
2019-06-11T17:24:13.974Z,9.35
2019-06-11T17:26:41.520Z,12.40
2019-06-11T17:29:12.202Z,10.70
2019-06-11T17:31:43.043Z,15.67
2019-06-11T17:34:10.814Z,18.65
2019-06-11T17:36:40.372Z,20.77
2019-06-11T17:39:10.316Z,20.03
2019-06-11T17:41:41.305Z,18.85
2019-06-11T17:44:10.284Z,21.37
2019-06-11T17:46:42.879Z,18.92
2019-06-11T17:51:37.445Z,16.67
2019-06-11T17:54:10.334Z,15.98
2019-06-11T17:56:36.834Z,16.62
2019-06-11T17:59:05.451Z,16.85
2019-06-11T18:01:33.893Z,31.02
2019-06-11T18:04:02.497Z,21.85
2019-06-11T18:06:31.603Z,15.78
2019-06-11T18:09:01.128Z,16.37
2019-06-11T18:11:31.185Z,13.00
2019-06-11T18:16:30.755Z,14.13
2019-06-11T18:19:00.614Z,20.97
2019-06-11T18:21:28.737Z,12.05
2019-06-11T18:23:56.880Z,11.00
2019-06-11T18:26:26.919Z,10.97
2019-06-11T18:31:26.750Z,10.48
2019-06-11T18:33:53.289Z,9.98
2019-06-11T18:38:51.097Z,11.55
2019-06-11T18:41:22.161Z,20.17
2019-06-11T18:43:50.028Z,11.22
2019-06-11T18:46:19.486Z,10.95
2019-06-11T18:48:50.878Z,10.27
2019-06-11T18:51:19.381Z,11.20
2019-06-11T18:56:16.139Z,10.25
2019-06-11T18:58:44.766Z,12.37
2019-06-11T19:03:56.730Z,9.55
2019-06-11T19:06:10.612Z,10.40
2019-06-11T19:11:07.273Z,11.33
2019-06-11T19:13:35.635Z,10.68
2019-06-11T19:18:31.846Z,11.75
2019-06-11T19:21:00.367Z,12.35
2019-06-11T19:23:29.743Z,11.50
2019-06-11T19:28:27.115Z,12.13
2019-06-11T19:30:55.654Z,12.15
2019-06-11T19:33:26.957Z,10.43
2019-06-11T19:35:53.735Z,12.70
2019-06-11T19:38:26.828Z,10.90
2019-06-11T19:40:51.996Z,14.13
2019-06-11T19:45:50.608Z,11.88
2019-06-11T19:48:17.880Z,12.45
2019-06-11T19:50:45.925Z,12.03
2019-06-11T19:53:14.234Z,11.57
2019-06-11T19:55:42.317Z,11.60
2019-06-11T19:58:11.215Z,11.20
2019-06-11T20:00:41.503Z,11.53
2019-06-11T20:03:10.257Z,11.08
2019-06-11T20:05:38.927Z,10.65
2019-06-11T20:08:07.264Z,11.03
2019-06-11T20:10:40.439Z,10.70
2019-06-11T20:13:05.742Z,11.60
2019-06-11T20:15:36.464Z,10.00
2019-06-11T20:18:04.877Z,11.63
2019-06-11T20:20:35.283Z,8.83
2019-06-11T20:23:03.778Z,12.05
2019-06-11T20:25:35.921Z,12.65
2019-06-11T20:28:01.866Z,13.08
2019-06-11T20:30:29.914Z,12.60
2019-06-11T20:33:00.125Z,15.65
2019-06-11T20:35:28.225Z,13.65
2019-06-11T20:37:56.353Z,13.32
2019-06-11T20:40:24.572Z,17.00
2019-06-11T20:45:21.061Z,18.90
2019-06-11T20:47:51.074Z,15.93
2019-06-11T20:50:20.470Z,15.88
2019-06-11T20:52:50.552Z,17.77
2019-06-11T20:55:20.207Z,19.37
2019-06-11T20:57:51.258Z,18.52
2019-06-11T21:02:46.865Z,18.17
2019-06-11T21:05:15.245Z,18.43
2019-06-11T21:07:44.747Z,22.40
2019-06-11T21:10:14.154Z,18.82
2019-06-11T21:12:44.112Z,17.82
2019-06-11T21:17:43.260Z,15.90
2019-06-11T21:20:11.432Z,17.10
2019-06-11T21:22:42.464Z,17.45
2019-06-11T21:25:10.462Z,18.35
2019-06-11T21:27:39.074Z,17.90
2019-06-11T21:30:07.740Z,16.55
2019-06-11T21:35:04.385Z,16.50
2019-06-11T21:37:32.527Z,15.20
2019-06-11T21:42:31.142Z,15.48
2019-06-11T21:44:59.653Z,15.15
2019-06-11T21:47:31.462Z,14.18
2019-06-11T21:50:01.153Z,13.83
2019-06-11T21:52:31.333Z,17.15
2019-06-11T21:55:00.969Z,13.03
2019-06-11T21:57:30.222Z,14.80
2019-06-11T22:00:00.466Z,15.23
2019-06-11T22:02:28.237Z,13.43
2019-06-11T22:04:56.261Z,15.32
2019-06-11T22:09:53.092Z,17.20
2019-06-11T22:12:21.421Z,16.80
2019-06-11T22:14:50.782Z,19.98
2019-06-11T22:17:20.854Z,19.92
2019-06-11T22:19:48.864Z,21.97
2019-06-11T22:22:17.527Z,20.70
2019-06-11T22:24:47.524Z,26.00
2019-06-11T22:27:15.678Z,20.88
2019-06-11T22:29:46.169Z,17.93
2019-06-11T22:32:14.117Z,23.43
2019-06-11T22:34:44.308Z,20.08
2019-06-11T22:37:14.216Z,21.57
2019-06-11T22:42:10.831Z,21.25
2019-06-11T22:44:43.638Z,20.23
2019-06-11T22:47:10.917Z,24.00
2019-06-11T22:49:41.633Z,28.07
2019-06-11T22:52:10.764Z,21.90
2019-06-11T22:54:41.988Z,14.90
2019-06-11T22:57:10.767Z,20.23
2019-06-11T22:59:42.553Z,18.27
2019-06-11T23:02:11.005Z,21.15
2019-06-11T23:07:09.945Z,24.00
2019-06-11T23:09:37.996Z,23.83
2019-06-11T23:12:06.521Z,21.30
2019-06-11T23:14:35.321Z,29.70
2019-06-11T23:17:04.227Z,26.60
2019-06-11T23:22:01.667Z,28.50
2019-06-11T23:24:31.573Z,26.07
2019-06-11T23:29:28.042Z,23.73
2019-06-11T23:31:56.273Z,21.62
2019-06-11T23:36:55.154Z,21.30
2019-06-11T23:39:23.747Z,23.87
2019-06-11T23:41:54.015Z,22.48
2019-06-11T23:44:22.508Z,20.30
2019-06-11T23:46:54.309Z,23.60
2019-06-11T23:49:22.444Z,22.00
2019-06-11T23:51:52.043Z,90.38
2019-06-11T23:54:20.668Z,43.60
2019-06-11T23:59:17.291Z,28.60
